Time;durP1;ratioP1;P1;durP2;ratioP2;P2;SDS_P1;SDS_P2;PMS_P1;PMS_P2;Temp;Humidity;BMP_temperature;BMP_pressure;BME280_temperature;BME280_humidity;BME280_pressure;Samples;Min_cycle;Max_cycle;Signal;HPM_P1;HPM_P2
2020/12/14 00:01:18;;;;;;;25.07;15.33;;;;;;;;;;4861053;28;20641;-83
2020/12/14 00:03:40;;;;;;;21.97;14.17;;;;;;;;;;4875251;28;20588;-83
2020/12/14 00:06:02;;;;;;;26.13;15.07;;;;;;;;;;4874909;28;20679;-82
2020/12/14 00:08:25;;;;;;;23.50;14.87;;;2.30;1.00;;;;;;4875376;28;20247;-81
2020/12/14 00:10:48;;;;;;;23.77;14.63;;;;;;;;;;4875122;28;20185;-81
2020/12/14 00:13:10;;;;;;;21.23;14.40;;;2.30;1.00;;;;;;4840509;28;20264;-82
2020/12/14 00:15:32;;;;;;;23.07;14.57;;;2.20;1.00;;;;;;4868717;28;20553;-83
2020/12/14 00:17:54;;;;;;;22.23;15.33;;;2.20;1.00;;;;;;4875522;28;20238;-82
2020/12/14 00:20:16;;;;;;;21.97;15.13;;;;;;;;;;4874130;28;20216;-83
2020/12/14 00:22:38;;;;;;;25.93;15.40;;;;;;;;;;4875744;28;20882;-83
2020/12/14 00:25:01;;;;;;;23.97;15.43;;;2.20;1.00;;;;;;4875629;28;20181;-83
2020/12/14 00:27:24;;;;;;;28.33;17.03;;;;;;;;;;4857837;28;20202;-83
2020/12/14 00:29:46;;;;;;;27.30;17.33;;;2.20;1.00;;;;;;4875737;28;20644;-83
2020/12/14 00:32:08;;;;;;;24.23;15.70;;;;;;;;;;4875536;28;20189;-82
2020/12/14 00:34:32;;;;;;;27.97;17.67;;;2.20;1.00;;;;;;4875664;28;20286;-83
2020/12/14 00:36:55;;;;;;;25.47;17.20;;;3.10;1.00;;;;;;4876114;28;20243;-83
2020/12/14 00:39:17;;;;;;;30.50;19.17;;;;;;;;;;4875583;28;20189;-83
2020/12/14 00:41:40;;;;;;;27.37;17.80;;;2.20;1.00;;;;;;4875921;28;20181;-84
2020/12/14 00:44:02;;;;;;;31.30;18.77;;;2.30;1.00;;;;;;4875861;28;20239;-83
2020/12/14 00:46:24;;;;;;;27.97;17.50;;;2.30;1.00;;;;;;4875657;28;20213;-84
2020/12/14 00:48:46;;;;;;;29.97;17.90;;;2.30;1.00;;;;;;4876051;28;20416;-83
2020/12/14 00:51:09;;;;;;;32.63;18.87;;;2.30;1.00;;;;;;4876113;28;20231;-83
2020/12/14 00:53:32;;;;;;;29.60;19.07;;;2.30;1.00;;;;;;4868161;28;20609;-83
2020/12/14 00:55:54;;;;;;;37.47;20.43;;;;;;;;;;4876379;28;20189;-82
2020/12/14 00:58:17;;;;;;;33.53;19.87;;;2.20;1.00;;;;;;4857887;28;20191;-83
2020/12/14 01:00:39;;;;;;;33.33;20.47;;;2.20;1.00;;;;;;4873566;28;20178;-84
2020/12/14 01:03:01;;;;;;;35.53;20.70;;;2.20;1.00;;;;;;4875898;28;20601;-82
2020/12/14 01:05:23;;;;;;;33.57;21.00;;;2.10;1.00;;;;;;4875533;28;20189;-82
2020/12/14 01:07:46;;;;;;;32.07;21.27;;;;;;;;;;4875914;28;20251;-82
2020/12/14 01:10:08;;;;;;;33.30;20.07;;;1.60;1.00;;;;;;4875470;28;20323;-82
2020/12/14 01:12:30;;;;;;;36.07;20.37;;;2.20;1.00;;;;;;4874985;28;20219;-83
2020/12/14 01:14:53;;;;;;;36.07;21.90;;;2.10;1.00;;;;;;4879116;28;20258;-83
2020/12/14 01:17:15;;;;;;;38.83;20.37;;;2.10;1.00;;;;;;4879157;28;20239;-83
2020/12/14 01:19:37;;;;;;;35.63;21.67;;;2.70;1.00;;;;;;4878789;28;20595;-83
2020/12/14 01:22:00;;;;;;;38.57;21.97;;;;;;;;;;4878650;28;20664;-81
2020/12/14 01:24:22;;;;;;;32.80;20.43;;;2.10;1.00;;;;;;4860852;28;20186;-84
2020/12/14 01:26:44;;;;;;;36.93;21.00;;;2.10;1.00;;;;;;4878285;28;20618;-83
2020/12/14 01:29:06;;;;;;;32.50;20.13;;;2.10;1.00;;;;;;4878971;28;20652;-84
2020/12/14 01:31:28;;;;;;;32.43;20.17;;;1.30;1.00;;;;;;4878384;28;20238;-83
2020/12/14 01:33:50;;;;;;;33.00;19.67;;;2.00;1.00;;;;;;4878652;28;20275;-82
2020/12/14 01:36:16;;;;;;;32.57;20.40;;;2.10;1.00;;;;;;4878607;28;20189;-83
2020/12/14 01:38:38;;;;;;;37.90;21.63;;;2.20;1.00;;;;;;4877735;28;20718;-82
2020/12/14 01:41:00;;;;;;;35.90;21.23;;;2.10;1.00;;;;;;4878484;28;20235;-83
2020/12/14 01:43:23;;;;;;;32.70;20.70;;;;;;;;;;4878844;28;20243;-83
2020/12/14 01:45:45;;;;;;;33.97;20.50;;;;;;;;;;4879345;28;20672;-83
2020/12/14 01:48:09;;;;;;;34.87;22.20;;;2.70;1.00;;;;;;4878566;28;20657;-82
2020/12/14 01:50:31;;;;;;;37.10;22.47;;;2.20;1.00;;;;;;4879001;28;20185;-79
2020/12/14 01:52:58;;;;;;;36.77;21.60;;;2.30;1.00;;;;;;4878595;28;20256;-84
2020/12/14 01:55:21;;;;;;;36.23;22.13;;;2.10;1.00;;;;;;4878270;28;20621;-83
2020/12/14 01:57:43;;;;;;;42.53;23.13;;;2.20;1.00;;;;;;4878751;28;20185;-82
2020/12/14 02:00:07;;;;;;;38.67;24.80;;;2.30;1.00;;;;;;4878896;28;20197;-83
2020/12/14 02:02:29;;;;;;;38.23;24.60;;;;;;;;;;4875921;28;20189;-81
2020/12/14 02:04:56;;;;;;;38.07;23.43;;;2.20;1.00;;;;;;4878687;28;20698;-80
2020/12/14 02:07:18;;;;;;;38.77;22.77;;;2.40;1.00;;;;;;4878071;28;20291;-83
2020/12/14 02:09:40;;;;;;;40.47;24.67;;;2.20;1.00;;;;;;4872103;28;20189;-83
2020/12/14 02:12:02;;;;;;;42.80;25.33;;;3.10;1.00;;;;;;4878549;28;20185;-83
2020/12/14 02:14:25;;;;;;;38.80;24.60;;;;;;;;;;4877667;28;20193;-82
2020/12/14 02:16:47;;;;;;;44.30;26.73;;;;;;;;;;4841772;28;20718;-83
2020/12/14 02:19:09;;;;;;;41.97;26.33;;;2.40;1.00;;;;;;4877722;28;20721;-83
2020/12/14 02:21:32;;;;;;;39.13;25.77;;;2.40;1.00;;;;;;4874504;28;20194;-83
2020/12/14 02:23:54;;;;;;;37.40;25.57;;;2.50;1.00;;;;;;4877463;28;20386;-83
2020/12/14 02:26:17;;;;;;;42.47;25.80;;;2.50;1.00;;;;;;4877625;28;20643;-84
2020/12/14 02:28:39;;;;;;;39.43;24.63;;;2.70;1.00;;;;;;4877755;28;20705;-82
2020/12/14 02:31:01;;;;;;;38.97;24.47;;;2.50;1.00;;;;;;4874668;28;20287;-83
2020/12/14 02:33:23;;;;;;;46.40;27.70;;;2.40;1.00;;;;;;4877550;28;20205;-84
2020/12/14 02:35:46;;;;;;;47.27;26.97;;;2.60;1.00;;;;;;4877218;28;20193;-83
2020/12/14 02:38:08;;;;;;;42.93;26.83;;;2.40;1.00;;;;;;4875188;28;20189;-83
2020/12/14 02:40:30;;;;;;;44.87;28.00;;;2.50;1.00;;;;;;4872893;28;20251;-84
2020/12/14 02:42:53;;;;;;;43.27;27.57;;;2.40;1.00;;;;;;4877422;28;20228;-83
2020/12/14 02:45:15;;;;;;;42.13;25.73;;;;;;;;;;4877241;28;20524;-83
2020/12/14 02:47:37;;;;;;;33.97;22.90;;;2.30;1.00;;;;;;4859393;28;20785;-83
2020/12/14 02:49:59;;;;;;;38.23;24.60;;;;;;;;;;4876979;28;20182;-83
2020/12/14 02:52:21;;;;;;;37.40;23.83;;;2.20;1.00;;;;;;4869600;28;20286;-83
2020/12/14 02:54:44;;;;;;;38.77;23.80;;;2.30;1.00;;;;;;4877254;28;20243;-84
2020/12/14 02:57:07;;;;;;;39.07;25.37;;;;;;;;;;4877170;28;20189;-82
2020/12/14 02:59:30;;;;;;;38.17;25.80;;;2.30;1.00;;;;;;4867066;28;20236;-84
2020/12/14 03:01:52;;;;;;;38.27;25.90;;;2.30;1.00;;;;;;4875268;28;20247;-83
2020/12/14 03:04:14;;;;;;;36.40;23.90;;;2.30;1.00;;;;;;4876564;28;20656;-84
2020/12/14 03:06:37;;;;;;;39.80;26.20;;;2.30;1.00;;;;;;4876930;28;20205;-84
2020/12/14 03:08:59;;;;;;;38.57;24.30;;;;;;;;;;4859257;28;20597;-83
2020/12/14 03:11:21;;;;;;;34.90;24.37;;;2.40;1.00;;;;;;4877187;28;20197;-84
2020/12/14 03:13:43;;;;;;;35.40;24.50;;;2.40;1.00;;;;;;4877215;28;20598;-84
2020/12/14 03:16:06;;;;;;;34.40;23.47;;;2.40;1.00;;;;;;4877251;28;20235;-83
2020/12/14 03:18:28;;;;;;;40.23;24.97;;;2.40;1.00;;;;;;4877311;28;20193;-83
2020/12/14 03:20:50;;;;;;;32.47;22.67;;;2.50;1.00;;;;;;4859761;28;20190;-84
2020/12/14 03:23:12;;;;;;;36.23;23.63;;;2.40;1.00;;;;;;4877334;28;20595;-84
2020/12/14 03:25:40;;;;;;;35.30;23.73;;;2.40;1.00;;;;;;4877095;28;20227;-84
2020/12/14 03:28:02;;;;;;;34.90;22.63;;;;;;;;;;4877035;28;20235;-83
2020/12/14 03:30:25;;;;;;;35.33;22.50;;;;;;;;;;4877230;28;20610;-82
2020/12/14 03:32:48;;;;;;;33.33;21.37;;;2.40;1.00;;;;;;4876954;28;20189;-84
2020/12/14 03:35:10;;;;;;;33.70;22.83;;;;;;;;;;4876984;28;20235;-83
2020/12/14 03:37:32;;;;;;;37.77;24.03;;;2.50;1.00;;;;;;4875017;28;20189;-84
2020/12/14 03:39:54;;;;;;;35.53;23.37;;;2.40;1.00;;;;;;4876879;28;20244;-84
2020/12/14 03:42:19;;;;;;;36.77;23.13;;;;;;;;;;4876727;28;20197;-83
2020/12/14 03:44:41;;;;;;;33.63;20.57;;;;;;;;;;4870581;28;20217;-84
2020/12/14 03:47:03;;;;;;;30.07;19.57;;;2.40;1.00;;;;;;4870111;28;20769;-82
2020/12/14 03:49:26;;;;;;;33.00;21.20;;;2.50;1.00;;;;;;4838860;28;20620;-82
2020/12/14 03:51:48;;;;;;;33.63;21.07;;;2.50;1.00;;;;;;4857036;28;20186;-83
2020/12/14 03:54:10;;;;;;;30.47;20.73;;;;;;;;;;4857607;28;20194;-84
2020/12/14 03:56:32;;;;;;;29.33;19.63;;;2.50;1.00;;;;;;4857041;28;20194;-83
2020/12/14 03:58:55;;;;;;;28.77;20.03;;;;;;;;;;4856887;28;20647;-83
2020/12/14 04:01:19;;;;;;;30.03;20.33;;;2.50;1.00;;;;;;4854859;28;20242;-82
2020/12/14 04:03:42;;;;;;;30.47;19.80;;;;;;;;;;4856905;28;20186;-83
2020/12/14 04:06:04;;;;;;;30.20;21.03;;;2.50;1.00;;;;;;4838915;28;20337;-82
2020/12/14 04:08:27;;;;;;;30.00;20.63;;;;;;;;;;4856115;28;20244;-82
2020/12/14 04:10:49;;;;;;;28.77;19.57;;;2.50;1.00;;;;;;4856694;28;20182;-82
2020/12/14 04:13:11;;;;;;;28.40;18.87;;;2.20;1.00;;;;;;4856286;28;20186;-83
2020/12/14 04:15:33;;;;;;;28.73;20.23;;;2.50;1.00;;;;;;4856588;28;20739;-84
2020/12/14 04:17:55;;;;;;;33.67;22.50;;;2.60;1.00;;;;;;4856535;28;20190;-83
2020/12/14 04:20:17;;;;;;;33.90;20.77;;;2.70;1.00;;;;;;4838424;28;20746;-83
2020/12/14 04:22:40;;;;;;;35.17;23.33;;;2.60;1.00;;;;;;4856557;28;20190;-84
2020/12/14 04:25:03;;;;;;;36.43;23.80;;;2.70;1.00;;;;;;4856519;28;20190;-82
2020/12/14 04:27:25;;;;;;;35.90;24.23;;;;;;;;;;4856206;28;20496;-82
2020/12/14 04:29:47;;;;;;;34.17;23.97;;;;;;;;;;4856519;28;20194;-83
2020/12/14 04:32:09;;;;;;;38.87;24.50;;;2.40;1.00;;;;;;4856167;28;20204;-83
2020/12/14 04:34:31;;;;;;;32.23;21.40;;;2.40;1.00;;;;;;4850468;28;20209;-83
2020/12/14 04:36:53;;;;;;;36.43;23.90;;;2.40;1.00;;;;;;4856534;28;20185;-83
2020/12/14 04:39:17;;;;;;;32.77;22.57;;;2.40;1.00;;;;;;4855944;28;20182;-82
2020/12/14 04:41:39;;;;;;;37.20;23.27;;;2.50;1.00;;;;;;4856084;28;20259;-82
2020/12/14 04:44:02;;;;;;;33.87;22.47;;;2.40;1.00;;;;;;4839039;28;20190;-82
2020/12/14 04:46:28;;;;;;;36.27;23.57;;;2.30;1.00;;;;;;4856198;28;20213;-82
2020/12/14 04:48:52;;;;;;;32.63;22.87;;;2.40;1.00;;;;;;4875608;28;20651;-83
2020/12/14 04:51:15;;;;;;;44.43;26.83;;;2.40;1.00;;;;;;4875968;28;20262;-82
2020/12/14 04:53:41;;;;;;;48.27;30.13;;;2.50;1.00;;;;;;4875940;28;20185;-83
2020/12/14 04:56:07;;;;;;;42.97;27.77;;;2.40;1.00;;;;;;4857985;28;20239;-84
2020/12/14 04:58:29;;;;;;;40.20;25.07;;;2.50;1.00;;;;;;4865860;28;20571;-84
2020/12/14 05:00:51;;;;;;;38.33;23.97;;;;;;;;;;4873501;28;20182;-83
2020/12/14 05:03:13;;;;;;;36.57;24.77;;;2.50;1.00;;;;;;4875432;28;20193;-83
2020/12/14 05:05:36;;;;;;;37.27;23.70;;;;;;;;;;4875733;28;20243;-84
2020/12/14 05:07:58;;;;;;;40.00;24.67;;;2.50;1.00;;;;;;4875493;28;20197;-82
2020/12/14 05:10:24;;;;;;;38.20;25.63;;;2.50;1.00;;;;;;4875208;28;20607;-83
2020/12/14 05:12:47;;;;;;;40.13;25.50;;;2.50;1.00;;;;;;4875720;28;20185;-84
2020/12/14 05:15:20;;;;;;;39.40;25.47;;;2.50;1.00;;;;;;4875072;28;20663;-83
2020/12/14 05:17:42;;;;;;;39.87;25.83;;;2.50;1.00;;;;;;4874109;28;20236;-83
2020/12/14 05:20:12;;;;;;;39.90;25.77;;;2.50;1.00;;;;;;4875356;28;20181;-84
2020/12/14 05:22:35;;;;;;;37.43;25.83;;;2.80;1.00;;;;;;4854457;28;20190;-83
2020/12/14 05:24:57;;;;;;;44.80;28.57;;;2.60;1.00;;;;;;4875354;28;20181;-83
2020/12/14 05:27:31;;;;;;;48.37;29.63;;;2.40;1.00;;;;;;4857011;28;20194;-82
2020/12/14 05:29:54;;;;;;;51.17;32.03;;;2.50;1.00;;;;;;4857263;28;20186;-84
2020/12/14 05:32:18;;;;;;;52.07;31.70;;;2.30;1.00;;;;;;4874958;28;20215;-83
2020/12/14 05:34:41;;;;;;;55.77;32.93;;;2.50;1.00;;;;;;4874785;28;20618;-83
2020/12/14 05:37:05;;;;;;;51.33;32.37;;;2.40;1.00;;;;;;4874697;28;20329;-83
2020/12/14 05:39:28;;;;;;;47.27;29.27;;;2.40;1.00;;;;;;4875041;28;20194;-83
2020/12/14 05:41:51;;;;;;;44.07;30.70;;;2.40;1.00;;;;;;4874925;28;20549;-83
2020/12/14 05:44:13;;;;;;;45.33;29.03;;;2.50;1.00;;;;;;4874938;28;20647;-83
2020/12/14 05:46:36;;;;;;;43.67;27.93;;;2.40;1.00;;;;;;4874877;28;20181;-84
2020/12/14 05:49:06;;;;;;;45.10;29.47;;;2.40;1.00;;;;;;4874595;28;20201;-82
2020/12/14 05:51:30;;;;;;;44.77;30.20;;;2.50;1.00;;;;;;4874327;28;20296;-83
2020/12/14 05:53:53;;;;;;;44.80;29.23;;;2.50;1.00;;;;;;4874981;28;20712;-81
2020/12/14 05:56:18;;;;;;;44.67;27.23;;;2.50;1.00;;;;;;4873377;28;20599;-83
2020/12/14 05:58:40;;;;;;;47.07;28.87;;;2.50;1.00;;;;;;4874984;28;20177;-84
2020/12/14 06:01:04;;;;;;;45.97;28.40;;;2.40;1.00;;;;;;4857610;28;20190;-83
2020/12/14 06:03:27;;;;;;;43.27;28.47;;;2.50;1.00;;;;;;4878022;28;20281;-82
2020/12/14 06:05:57;;;;;;;43.27;27.53;;;2.60;1.00;;;;;;4876623;28;20247;-84
2020/12/14 06:08:45;;;;;;;46.47;27.50;;;2.60;1.00;;;;;;4875910;28;20799;-84
2020/12/14 06:11:08;;;;;;;41.07;25.20;;;2.40;1.00;;;;;;4860520;28;20186;-83
2020/12/14 06:13:31;;;;;;;40.83;26.70;;;2.50;1.00;;;;;;4878483;28;20185;-84
2020/12/14 06:15:56;;;;;;;40.10;25.20;;;2.60;1.00;;;;;;4860420;28;20202;-83
2020/12/14 06:18:21;;;;;;;41.37;25.97;;;3.00;1.00;;;;;;4877834;28;20267;-84
2020/12/14 06:20:45;;;;;;;38.70;24.57;;;2.50;1.00;;;;;;4878255;28;20540;-83
2020/12/14 06:23:08;;;;;;;45.97;27.73;;;2.50;1.00;;;;;;4878356;28;20189;-84
2020/12/14 06:25:31;;;;;;;45.00;27.17;;;2.50;1.00;;;;;;4859260;28;20252;-84
2020/12/14 06:27:53;;;;;;;43.40;25.43;;;2.50;1.00;;;;;;4878439;28;20213;-84
2020/12/14 06:30:32;;;;;;;42.00;26.77;;;2.40;1.00;;;;;;4878020;28;20193;-82
2020/12/14 06:32:59;;;;;;;41.90;26.07;;;2.40;1.00;;;;;;4878232;28;20201;-83
2020/12/14 06:35:41;;;;;;;40.60;26.97;;;2.40;1.00;;;;;;4877922;28;20647;-83
2020/12/14 06:38:04;;;;;;;39.30;24.83;;;2.40;1.00;;;;;;4877886;28;20223;-85
2020/12/14 06:40:26;;;;;;;39.83;25.03;;;2.40;1.00;;;;;;4877330;28;20725;-83
2020/12/14 06:42:48;;;;;;;37.53;24.07;;;2.40;1.00;;;;;;4855180;28;20651;-83
2020/12/14 06:45:13;;;;;;;37.83;23.63;;;2.40;1.00;;;;;;4877269;28;20211;-84
2020/12/14 06:47:41;;;;;;;36.97;24.17;;;2.40;1.00;;;;;;4858896;28;20248;-83
2020/12/14 06:50:23;;;;;;;35.57;22.50;;;2.40;1.00;;;;;;4877891;28;20729;-87
2020/12/14 06:52:45;;;;;;;37.00;22.97;;;;;;;;;;4858284;28;20190;-80
2020/12/14 06:55:12;;;;;;;33.53;23.23;;;2.40;1.00;;;;;;4877235;28;20182;-83
2020/12/14 06:57:37;;;;;;;31.87;21.50;;;3.10;1.00;;;;;;4856071;28;20248;-85
2020/12/14 06:59:59;;;;;;;31.93;20.00;;;2.40;1.00;;;;;;4859519;28;20233;-83
2020/12/14 07:02:35;;;;;;;32.80;20.23;;;2.50;1.00;;;;;;4874323;28;20716;-84
2020/12/14 07:04:57;;;;;;;31.40;20.30;;;;;;;;;;4877204;28;20173;-84
2020/12/14 07:07:33;;;;;;;29.10;19.00;;;2.50;1.00;;;;;;4877009;28;20646;-82
2020/12/14 07:10:14;;;;;;;28.57;20.33;;;2.50;1.00;;;;;;4877188;28;20641;-84
2020/12/14 07:12:42;;;;;;;26.80;17.40;;;2.70;1.00;;;;;;4872476;28;20238;-86
2020/12/14 07:15:04;;;;;;;24.53;16.90;;;2.70;1.00;;;;;;4877306;28;20215;-84
2020/12/14 07:17:27;;;;;;;29.40;16.90;;;2.70;1.00;;;;;;4876142;28;20239;-86
2020/12/14 07:19:51;;;;;;;25.03;16.57;;;2.60;1.00;;;;;;4877100;28;20189;-85
2020/12/14 07:22:14;;;;;;;29.80;18.93;;;2.70;1.00;;;;;;4876973;28;20588;-83
2020/12/14 07:24:36;;;;;;;25.80;17.67;;;2.70;1.00;;;;;;4877003;28;20241;-85
2020/12/14 07:26:59;;;;;;;23.97;17.13;;;2.80;1.00;;;;;;4876895;28;20231;-84
2020/12/14 07:29:21;;;;;;;25.97;17.33;;;2.80;1.00;;;;;;4868862;28;20220;-85
2020/12/14 07:31:43;;;;;;;26.03;17.73;;;3.00;1.00;;;;;;4876777;28;20594;-84
2020/12/14 07:34:06;;;;;;;26.57;18.10;;;3.60;1.00;;;;;;4876493;28;20265;-83
2020/12/14 07:36:29;;;;;;;27.53;19.10;;;3.00;1.00;;;;;;4876566;28;20251;-82
2020/12/14 07:38:53;;;;;;;27.20;18.17;;;2.90;1.00;;;;;;4870870;28;20185;-84
2020/12/14 07:41:16;;;;;;;23.97;16.67;;;3.00;1.00;;;;;;4875175;28;20220;-85
2020/12/14 07:43:53;;;;;;;27.33;17.03;;;3.20;1.00;;;;;;4876634;28;20603;-84
2020/12/14 07:46:20;;;;;;;29.57;18.77;;;3.60;1.00;;;;;;4858849;28;20225;-84
2020/12/14 07:48:43;;;;;;;29.03;19.20;;;;;;;;;;4876706;28;20228;-84
2020/12/14 07:51:07;;;;;;;22.67;15.50;;;3.30;1.00;;;;;;4876293;28;20255;-82
2020/12/14 07:53:29;;;;;;;24.90;17.37;;;3.30;1.00;;;;;;4875878;28;20243;-83
2020/12/14 07:56:01;;;;;;;24.17;16.50;;;3.30;1.00;;;;;;4877441;28;20235;-85
2020/12/14 07:58:23;;;;;;;22.33;16.40;;;3.60;1.00;;;;;;4876998;28;20235;-84
2020/12/14 08:00:46;;;;;;;27.10;18.53;;;3.50;1.00;;;;;;4874990;28;20272;-81
2020/12/14 08:03:09;;;;;;;22.90;17.50;;;;;;;;;;4859341;28;20268;-82
2020/12/14 08:05:30;;;;;;;28.27;19.17;;;3.70;1.00;;;;;;4876891;28;20655;-84
2020/12/14 08:07:54;;;;;;;28.93;20.10;;;3.40;1.00;;;;;;4877107;28;20181;-84
2020/12/14 08:10:20;;;;;;;28.70;18.50;;;3.80;1.00;;;;;;4876514;28;20201;-84
2020/12/14 08:12:43;;;;;;;25.33;18.33;;;3.90;1.00;;;;;;4876587;28;20185;-85
2020/12/14 08:15:08;;;;;;;20.60;15.17;;;3.90;99.90;;;;;;4877090;28;20181;-84
2020/12/14 08:17:35;;;;;;;18.07;14.23;;;4.00;99.90;;;;;;4876717;28;20185;-81
2020/12/14 08:19:58;;;;;;;19.93;14.40;;;;;;;;;;4858050;28;20181;-83
2020/12/14 08:22:20;;;;;;;19.50;13.90;;;;;;;;;;4875326;28;20670;-82
2020/12/14 08:24:42;;;;;;;17.10;12.77;;;4.10;1.00;;;;;;4875342;28;20185;-86
2020/12/14 08:27:07;;;;;;;15.73;11.83;;;4.30;1.00;;;;;;4858383;28;20202;-80
2020/12/14 08:29:31;;;;;;;17.70;12.13;;;4.50;1.00;;;;;;4875592;28;20205;-83
2020/12/14 08:31:55;;;;;;;16.73;11.37;;;4.40;99.90;;;;;;4857950;28;20197;-85
2020/12/14 08:34:32;;;;;;;15.63;11.17;;;4.50;99.90;;;;;;4875563;28;20697;-85
2020/12/14 08:36:54;;;;;;;17.77;11.40;;;4.60;1.00;;;;;;4876150;28;20182;-84
2020/12/14 08:39:16;;;;;;;17.53;11.97;;;5.50;1.00;;;;;;4875824;28;20186;-83
2020/12/14 08:41:38;;;;;;;17.37;11.33;;;4.70;99.90;;;;;;4876005;28;20643;-82
2020/12/14 08:44:00;;;;;;;16.57;11.57;;;4.60;1.00;;;;;;4858489;28;20681;-84
2020/12/14 08:46:29;;;;;;;16.93;11.30;;;4.60;1.00;;;;;;4857797;28;20236;-82
2020/12/14 08:48:52;;;;;;;13.80;9.97;;;5.30;1.00;;;;;;4858009;28;20222;-86
2020/12/14 08:51:17;;;;;;;11.50;9.43;;;5.00;8.50;;;;;;4874992;28;20193;-85
2020/12/14 08:53:39;;;;;;;15.20;10.50;;;;;;;;;;4868865;28;20186;-83
2020/12/14 08:56:07;;;;;;;13.73;9.83;;;6.00;99.90;;;;;;4873267;28;20272;-82
2020/12/14 08:58:30;;;;;;;10.63;8.33;;;5.20;1.00;;;;;;4873837;28;20243;-82
2020/12/14 09:00:54;;;;;;;9.17;7.13;;;5.50;99.90;;;;;;4863649;28;20209;-83
2020/12/14 09:03:16;;;;;;;9.73;7.30;;;;;;;;;;4871250;28;20766;-83
2020/12/14 09:05:39;;;;;;;9.37;7.10;;;;;;;;;;4850875;28;20194;-84
2020/12/14 09:08:12;;;;;;;11.23;7.73;;;5.60;1.00;;;;;;4847735;28;20190;-84
2020/12/14 09:10:35;;;;;;;11.13;7.83;;;;;;;;;;4844239;28;20590;-85
2020/12/14 09:13:04;;;;;;;9.10;7.43;;;5.80;99.90;;;;;;4844913;28;20261;-83
2020/12/14 09:15:26;;;;;;;9.97;7.90;;;;;;;;;;4856755;28;20206;-83
2020/12/14 09:17:49;;;;;;;9.47;7.27;;;;;;;;;;4841404;28;20234;-83
2020/12/14 09:20:12;;;;;;;10.40;7.17;;;;;;;;;;4872619;28;20189;-84
2020/12/14 09:22:34;;;;;;;8.83;6.57;;;;;;;;;;4856789;28;20260;-83
2020/12/14 09:24:57;;;;;;;8.67;6.80;;;6.30;1.00;;;;;;4874045;28;20651;-83
2020/12/14 09:27:20;;;;;;;7.60;6.10;;;6.30;1.00;;;;;;4857565;28;20198;-83
2020/12/14 09:29:43;;;;;;;7.60;5.93;;;6.40;1.00;;;;;;4857495;28;20210;-84
2020/12/14 09:32:07;;;;;;;8.30;6.73;;;;;;;;;;4841603;28;20700;-86
2020/12/14 09:34:29;;;;;;;9.13;6.33;;;;;;;;;;4846499;28;20312;-84
2020/12/14 09:36:51;;;;;;;7.60;5.57;;;;;;;;;;4856348;28;20198;-79
2020/12/14 09:39:14;;;;;;;7.57;5.77;;;;;;;;;;4877901;28;20194;-84
2020/12/14 09:41:37;;;;;;;6.80;5.70;;;6.60;99.90;;;;;;4843459;28;20198;-85
2020/12/14 09:43:59;;;;;;;7.17;5.87;;;;;;;;;;4843159;28;20199;-83
2020/12/14 09:46:21;;;;;;;6.47;5.40;;;;;;;;;;4859231;28;20596;-83
2020/12/14 09:48:44;;;;;;;6.77;5.33;;;;;;;;;;4844027;28;20624;-83
2020/12/14 09:51:07;;;;;;;7.17;5.63;;;;;;;;;;4852490;28;20280;-85
2020/12/14 09:53:29;;;;;;;5.03;4.50;;;;;;;;;;4859437;28;20202;-84
2020/12/14 09:55:52;;;;;;;5.73;4.53;;;;;;;;;;4873553;28;20211;-84
2020/12/14 09:58:18;;;;;;;4.90;4.30;;;7.40;1.00;;;;;;4876756;28;20201;-81
2020/12/14 10:00:42;;;;;;;5.20;4.70;;;7.40;1.00;;;;;;4858159;28;20202;-82
2020/12/14 10:03:04;;;;;;;5.37;4.53;;;;;;;;;;4877213;28;20193;-86
2020/12/14 10:05:27;;;;;;;5.97;5.13;;;;;;;;;;4860882;28;21023;-80
2020/12/14 10:07:49;;;;;;;5.90;4.70;;;;;;;;;;4877800;28;20693;-81
2020/12/14 10:10:12;;;;;;;6.87;4.97;;;;;;;;;;4876511;28;20213;-84
2020/12/14 10:12:34;;;;;;;4.67;4.20;;;;;;;;;;4860344;28;20206;-84
2020/12/14 10:14:57;;;;;;;5.33;4.37;;;7.60;99.90;;;;;;4874872;28;20197;-81
2020/12/14 10:17:20;;;;;;;6.10;4.80;;;;;;;;;;4842542;28;20202;-83
2020/12/14 10:19:42;;;;;;;5.30;4.10;;;;;;;;;;4876185;28;20208;-82
2020/12/14 10:22:04;;;;;;;4.93;4.43;;;;;;;;;;4859707;28;20182;-82
2020/12/14 10:24:26;;;;;;;5.00;4.50;;;;;;;;;;4876379;28;20197;-83
2020/12/14 10:26:49;;;;;;;5.50;4.30;;;;;;;;;;4843484;28;20692;-79
2020/12/14 10:29:13;;;;;;;4.13;3.70;;;;;;;;;;4873032;28;20749;-79
2020/12/14 10:31:36;;;;;;;4.80;4.17;;;7.90;99.90;;;;;;4877789;28;20200;-82
2020/12/14 10:33:59;;;;;;;4.67;4.13;;;;;;;;;;4856420;28;20626;-79
2020/12/14 10:36:22;;;;;;;4.13;3.63;;;;;;;;;;4858008;28;20633;-79
2020/12/14 10:38:44;;;;;;;4.57;4.17;;;;;;;;;;4842340;28;20186;-83
2020/12/14 10:41:07;;;;;;;4.30;3.87;;;8.50;99.50;;;;;;4878911;28;20190;-82
2020/12/14 10:43:30;;;;;;;5.27;4.63;;;8.70;1.00;;;;;;4877968;28;20247;-82
2020/12/14 10:45:52;;;;;;;4.93;4.33;;;9.10;99.90;;;;;;4858554;28;20256;-80
2020/12/14 10:48:15;;;;;;;6.23;5.10;;;9.10;1.00;;;;;;4859988;28;20234;-85
2020/12/14 10:50:39;;;;;;;5.83;5.20;;;;;;;;;;4879719;28;20280;-84
2020/12/14 10:53:01;;;;;;;6.40;5.10;;;;;;;;;;4862453;28;20194;-83
2020/12/14 10:55:24;;;;;;;4.90;4.40;;;9.10;1.00;;;;;;4844682;28;20206;-85
2020/12/14 10:57:47;;;;;;;5.13;4.63;;;9.20;1.00;;;;;;4840455;28;20258;-84
2020/12/14 11:00:10;;;;;;;5.17;4.70;;;;;;;;;;4859547;28;20194;-86
2020/12/14 11:02:33;;;;;;;4.63;4.23;;;;;;;;;;4857493;28;20194;-80
2020/12/14 11:04:56;;;;;;;4.80;4.30;;;9.20;1.00;;;;;;4875566;28;20193;-83
2020/12/14 11:07:18;;;;;;;5.03;4.13;;;;;;;;;;4858577;28;20202;-81
2020/12/14 11:09:41;;;;;;;4.33;3.93;;;;;;;;;;4858926;28;20222;-81
2020/12/14 11:12:04;;;;;;;4.17;3.77;;;9.20;1.00;;;;;;4858713;28;20190;-83
2020/12/14 11:14:27;;;;;;;4.53;4.13;;;;;;;;;;4858418;28;20677;-82
2020/12/14 11:16:49;;;;;;;4.30;3.90;;;;;;;;;;4842991;28;20199;-86
2020/12/14 11:19:11;;;;;;;5.53;4.97;;;;;;;;;;4839563;28;20677;-86
2020/12/14 11:21:35;;;;;;;5.23;4.73;;;8.80;1.00;;;;;;4877151;28;20193;-84
2020/12/14 11:24:00;;;;;;;5.73;5.13;;;;;;;;;;4856019;28;20283;-85
2020/12/14 11:26:22;;;;;;;6.57;5.77;;;;;;;;;;4858966;28;20190;-85
2020/12/14 11:28:45;;;;;;;6.97;5.70;;;;;;;;;;4859043;28;20541;-85
2020/12/14 11:31:11;;;;;;;8.30;6.40;;;8.60;1.00;;;;;;4858559;28;20623;-84
2020/12/14 11:33:33;;;;;;;8.20;6.70;;;;;;;;;;4854916;28;20221;-84
2020/12/14 11:35:55;;;;;;;7.20;6.47;;;;;;;;;;4859425;28;21133;-86
2020/12/14 11:38:18;;;;;;;7.10;6.37;;;8.70;1.00;;;;;;4859780;28;20186;-87
2020/12/14 11:40:41;;;;;;;7.27;6.50;;;;;;;;;;4833708;28;20244;-86
2020/12/14 11:43:03;;;;;;;7.57;6.80;;;;;;;;;;4860560;28;20190;-88
2020/12/14 11:45:27;;;;;;;7.43;6.33;;;;;;;;;;4875969;28;20840;-88
2020/12/14 11:47:49;;;;;;;9.13;7.13;;;;;;;;;;4836330;28;20222;-89
2020/12/14 11:50:12;;;;;;;7.87;7.07;;;;;;;;;;4842567;28;20218;-87
2020/12/14 11:52:35;;;;;;;8.80;7.13;;;8.30;1.00;;;;;;4858461;28;20726;-88
2020/12/14 11:54:58;;;;;;;8.03;7.20;;;7.90;1.00;;;;;;4853582;28;20237;-86
2020/12/14 11:57:20;;;;;;;9.50;7.80;;;;;;;;;;4842317;28;20206;-87
2020/12/14 11:59:43;;;;;;;11.33;8.43;;;;;;;;;;4834739;28;20665;-85
2020/12/14 12:02:06;;;;;;;8.40;7.50;;;8.00;1.00;;;;;;4874737;28;20217;-86
2020/12/14 12:04:29;;;;;;;10.30;8.47;;;;;;;;;;4842054;28;20256;-88
2020/12/14 12:06:51;;;;;;;10.97;9.13;;;;;;;;;;4842947;28;20283;-88
2020/12/14 12:09:14;;;;;;;9.57;8.07;;;;;;;;;;4842115;28;20194;-90
2020/12/14 12:11:37;;;;;;;10.63;8.83;;;8.70;1.00;;;;;;4874810;28;20320;-91
2020/12/14 12:14:00;;;;;;;10.10;7.90;;;;;;;;;;4843399;28;20199;-89
2020/12/14 12:16:24;;;;;;;11.90;9.37;;;9.80;1.00;;;;;;4842782;28;20190;-90
2020/12/14 12:18:50;;;;;;;10.97;8.67;;;;;;;;;;4876208;28;20228;-84
2020/12/14 12:21:12;;;;;;;8.17;7.37;;;;;;;;;;4843809;28;20237;-89
2020/12/14 12:23:35;;;;;;;7.40;6.43;;;;;;;;;;4842761;28;20202;-89
2020/12/14 12:25:57;;;;;;;6.93;6.17;;;;;;;;;;4842901;28;20190;-91
2020/12/14 12:28:20;;;;;;;7.77;6.97;;;10.00;1.00;;;;;;4859949;28;20194;-88
2020/12/14 12:30:42;;;;;;;6.87;6.27;;;;;;;;;;4839671;28;20628;-88
2020/12/14 12:33:05;;;;;;;7.93;5.20;;;;;;;;;;4874122;28;20209;-88
2020/12/14 12:35:27;;;;;;;7.63;6.47;;;;;;;;;;4842083;28;20199;-85
2020/12/14 12:37:49;;;;;;;7.23;6.00;;;;;;;;;;4840786;28;20234;-89
2020/12/14 12:40:12;;;;;;;7.20;6.50;;;;;;;;;;4841768;28;20194;-89
2020/12/14 12:42:34;;;;;;;7.47;6.47;;;;;;;;;;4842741;28;20190;-89
2020/12/14 12:44:57;;;;;;;6.53;5.93;;;9.00;1.00;;;;;;4825202;28;20765;-89
2020/12/14 12:47:20;;;;;;;8.50;6.90;;;;;;;;;;4840268;28;20761;-87
2020/12/14 12:49:42;;;;;;;7.50;6.80;;;;;;;;;;4848499;28;20268;-86
2020/12/14 12:52:04;;;;;;;8.00;7.20;;;;;;;;;;4832220;28;20191;-88
2020/12/14 12:54:27;;;;;;;8.77;7.87;;;;;;;;;;4848066;28;20194;-87
2020/12/14 12:56:49;;;;;;;7.97;6.90;;;;;;;;;;4858186;28;20733;-86
2020/12/14 12:59:11;;;;;;;7.37;6.40;;;;;;;;;;4842621;28;20262;-86
2020/12/14 13:01:34;;;;;;;7.83;7.03;;;8.60;99.90;;;;;;4822207;28;20258;-89